Terminal Aerodrome Forecast
Issued by NWS Buffalo, NY

Home | Current Version | Previous Version | Text Only | Print | Product List | Glossary On
Versions: 1 2 3 4 5 6 7 8 9 10 11 12 13 14 15 16 17 18 19 20 21 22 23 24 25 26
000
FTUS41 KBUF 210500
TAFROC
TAF
KROC 210520Z 2106/2206 00000KT P6SM BKN025 BKN070
      TEMPO 2106/2108 SCT030 BKN070
     FM210900 VRB03KT P6SM BKN035 OVC070
     FM211400 26004KT P6SM SCT045 OVC150=

USA.gov is the U.S. government's official web portal to all federal, state and local government web resources and services.